sensor_id;sensor_type;location;lat;lon;timestamp;P1;durP1;ratioP1;P2;durP2;ratioP2
81648;SDS011;71057;51.436;6.768;2023-11-22T00:00:39;14.45;;;9.18;;
81648;SDS011;71057;51.436;6.768;2023-11-22T00:03:05;14.33;;;9.20;;
81648;SDS011;71057;51.436;6.768;2023-11-22T00:05:30;15.80;;;9.13;;
81648;SDS011;71057;51.436;6.768;2023-11-22T00:07:56;14.13;;;10.27;;
81648;SDS011;71057;51.436;6.768;2023-11-22T00:10:22;14.82;;;9.27;;
81648;SDS011;71057;51.436;6.768;2023-11-22T00:12:48;12.40;;;8.50;;
81648;SDS011;71057;51.436;6.768;2023-11-22T00:15:13;14.85;;;9.73;;
81648;SDS011;71057;51.436;6.768;2023-11-22T00:17:43;14.38;;;9.50;;
81648;SDS011;71057;51.436;6.768;2023-11-22T00:20:08;15.60;;;9.95;;
81648;SDS011;71057;51.436;6.768;2023-11-22T00:22:34;14.40;;;9.60;;
81648;SDS011;71057;51.436;6.768;2023-11-22T00:25:00;15.10;;;9.55;;
81648;SDS011;71057;51.436;6.768;2023-11-22T00:27:26;12.75;;;9.13;;
81648;SDS011;71057;51.436;6.768;2023-11-22T00:29:56;16.48;;;10.52;;
81648;SDS011;71057;51.436;6.768;2023-11-22T00:32:22;19.10;;;12.60;;
81648;SDS011;71057;51.436;6.768;2023-11-22T00:34:47;15.95;;;9.52;;
81648;SDS011;71057;51.436;6.768;2023-11-22T00:37:13;16.20;;;10.13;;
81648;SDS011;71057;51.436;6.768;2023-11-22T00:39:38;16.30;;;9.57;;
81648;SDS011;71057;51.436;6.768;2023-11-22T00:42:04;16.95;;;10.43;;
81648;SDS011;71057;51.436;6.768;2023-11-22T00:44:30;16.15;;;8.95;;
81648;SDS011;71057;51.436;6.768;2023-11-22T00:46:55;14.38;;;9.70;;
81648;SDS011;71057;51.436;6.768;2023-11-22T00:49:22;16.17;;;9.30;;
81648;SDS011;71057;51.436;6.768;2023-11-22T00:51:47;13.18;;;8.77;;
81648;SDS011;71057;51.436;6.768;2023-11-22T00:54:13;14.77;;;8.77;;
81648;SDS011;71057;51.436;6.768;2023-11-22T00:56:38;14.55;;;9.43;;
81648;SDS011;71057;51.436;6.768;2023-11-22T00:59:04;16.55;;;8.75;;
81648;SDS011;71057;51.436;6.768;2023-11-22T01:01:29;14.15;;;8.85;;
81648;SDS011;71057;51.436;6.768;2023-11-22T01:03:56;14.05;;;8.50;;
81648;SDS011;71057;51.436;6.768;2023-11-22T01:06:22;13.57;;;8.55;;
81648;SDS011;71057;51.436;6.768;2023-11-22T01:08:48;13.95;;;8.73;;
81648;SDS011;71057;51.436;6.768;2023-11-22T01:11:13;12.30;;;8.10;;
81648;SDS011;71057;51.436;6.768;2023-11-22T01:13:39;16.45;;;8.50;;
81648;SDS011;71057;51.436;6.768;2023-11-22T01:16:08;15.35;;;9.63;;
81648;SDS011;71057;51.436;6.768;2023-11-22T01:18:34;12.77;;;8.45;;
81648;SDS011;71057;51.436;6.768;2023-11-22T01:21:00;12.27;;;8.32;;
81648;SDS011;71057;51.436;6.768;2023-11-22T01:23:25;14.43;;;9.57;;
81648;SDS011;71057;51.436;6.768;2023-11-22T01:25:53;16.50;;;8.65;;
81648;SDS011;71057;51.436;6.768;2023-11-22T01:28:19;13.05;;;9.32;;
81648;SDS011;71057;51.436;6.768;2023-11-22T01:30:44;13.85;;;9.02;;
81648;SDS011;71057;51.436;6.768;2023-11-22T01:33:11;13.45;;;8.95;;
81648;SDS011;71057;51.436;6.768;2023-11-22T01:35:36;13.57;;;8.63;;
81648;SDS011;71057;51.436;6.768;2023-11-22T01:38:02;14.43;;;8.65;;
81648;SDS011;71057;51.436;6.768;2023-11-22T01:40:29;14.48;;;8.82;;
81648;SDS011;71057;51.436;6.768;2023-11-22T01:42:55;16.42;;;9.45;;
81648;SDS011;71057;51.436;6.768;2023-11-22T01:45:20;14.23;;;7.97;;
81648;SDS011;71057;51.436;6.768;2023-11-22T01:47:46;16.83;;;8.43;;
81648;SDS011;71057;51.436;6.768;2023-11-22T01:50:11;11.88;;;7.85;;
81648;SDS011;71057;51.436;6.768;2023-11-22T01:52:37;14.18;;;8.63;;
81648;SDS011;71057;51.436;6.768;2023-11-22T01:55:04;14.65;;;7.53;;
81648;SDS011;71057;51.436;6.768;2023-11-22T01:57:31;13.50;;;8.10;;
81648;SDS011;71057;51.436;6.768;2023-11-22T01:59:59;17.20;;;9.45;;
81648;SDS011;71057;51.436;6.768;2023-11-22T02:02:26;15.40;;;7.50;;
81648;SDS011;71057;51.436;6.768;2023-11-22T02:04:51;16.63;;;9.40;;
81648;SDS011;71057;51.436;6.768;2023-11-22T02:07:16;12.07;;;7.20;;
81648;SDS011;71057;51.436;6.768;2023-11-22T02:09:42;12.43;;;7.17;;
81648;SDS011;71057;51.436;6.768;2023-11-22T02:12:07;16.27;;;9.10;;
81648;SDS011;71057;51.436;6.768;2023-11-22T02:14:33;15.15;;;9.45;;
81648;SDS011;71057;51.436;6.768;2023-11-22T02:16:59;11.70;;;8.18;;
81648;SDS011;71057;51.436;6.768;2023-11-22T02:19:25;15.48;;;8.32;;
81648;SDS011;71057;51.436;6.768;2023-11-22T02:21:50;16.70;;;9.13;;
81648;SDS011;71057;51.436;6.768;2023-11-22T02:24:17;10.82;;;8.05;;
81648;SDS011;71057;51.436;6.768;2023-11-22T02:26:45;13.82;;;8.82;;
81648;SDS011;71057;51.436;6.768;2023-11-22T02:29:13;14.00;;;7.20;;
81648;SDS011;71057;51.436;6.768;2023-11-22T02:31:40;12.57;;;7.88;;
81648;SDS011;71057;51.436;6.768;2023-11-22T02:36:33;13.30;;;7.10;;
81648;SDS011;71057;51.436;6.768;2023-11-22T02:38:58;12.90;;;8.77;;
81648;SDS011;71057;51.436;6.768;2023-11-22T02:41:23;16.80;;;8.25;;
81648;SDS011;71057;51.436;6.768;2023-11-22T02:43:50;18.75;;;9.63;;
81648;SDS011;71057;51.436;6.768;2023-11-22T02:46:15;17.38;;;9.95;;
81648;SDS011;71057;51.436;6.768;2023-11-22T02:48:41;16.98;;;9.68;;
81648;SDS011;71057;51.436;6.768;2023-11-22T02:51:06;12.52;;;8.50;;
81648;SDS011;71057;51.436;6.768;2023-11-22T02:53:31;13.63;;;7.68;;
81648;SDS011;71057;51.436;6.768;2023-11-22T02:56:00;16.95;;;9.35;;
81648;SDS011;71057;51.436;6.768;2023-11-22T02:58:26;16.58;;;9.02;;
81648;SDS011;71057;51.436;6.768;2023-11-22T03:00:53;16.35;;;9.30;;
81648;SDS011;71057;51.436;6.768;2023-11-22T03:03:19;16.38;;;9.38;;
81648;SDS011;71057;51.436;6.768;2023-11-22T03:05:45;18.00;;;9.82;;
81648;SDS011;71057;51.436;6.768;2023-11-22T03:08:10;17.60;;;9.85;;
81648;SDS011;71057;51.436;6.768;2023-11-22T03:10:37;16.58;;;8.32;;
81648;SDS011;71057;51.436;6.768;2023-11-22T03:13:03;18.38;;;9.25;;
81648;SDS011;71057;51.436;6.768;2023-11-22T03:15:29;16.33;;;9.27;;
81648;SDS011;71057;51.436;6.768;2023-11-22T03:17:54;17.87;;;10.07;;
81648;SDS011;71057;51.436;6.768;2023-11-22T03:20:19;15.90;;;8.60;;
81648;SDS011;71057;51.436;6.768;2023-11-22T03:22:45;18.58;;;8.60;;
81648;SDS011;71057;51.436;6.768;2023-11-22T03:25:11;16.27;;;10.07;;
81648;SDS011;71057;51.436;6.768;2023-11-22T03:27:37;17.58;;;9.85;;
81648;SDS011;71057;51.436;6.768;2023-11-22T03:30:03;17.10;;;9.35;;
81648;SDS011;71057;51.436;6.768;2023-11-22T03:32:29;16.48;;;9.65;;
81648;SDS011;71057;51.436;6.768;2023-11-22T03:34:54;20.13;;;9.88;;
81648;SDS011;71057;51.436;6.768;2023-11-22T03:37:20;15.98;;;8.93;;
81648;SDS011;71057;51.436;6.768;2023-11-22T03:39:45;18.73;;;10.07;;
81648;SDS011;71057;51.436;6.768;2023-11-22T03:42:14;16.08;;;9.88;;
81648;SDS011;71057;51.436;6.768;2023-11-22T03:44:41;19.83;;;10.18;;
81648;SDS011;71057;51.436;6.768;2023-11-22T03:47:06;15.80;;;8.40;;
81648;SDS011;71057;51.436;6.768;2023-11-22T03:49:31;19.37;;;10.03;;
81648;SDS011;71057;51.436;6.768;2023-11-22T03:51:57;17.98;;;9.43;;
81648;SDS011;71057;51.436;6.768;2023-11-22T03:54:22;22.40;;;10.60;;
81648;SDS011;71057;51.436;6.768;2023-11-22T03:56:48;15.93;;;9.07;;
81648;SDS011;71057;51.436;6.768;2023-11-22T03:59:13;14.27;;;9.60;;
81648;SDS011;71057;51.436;6.768;2023-11-22T04:01:38;13.93;;;8.03;;
81648;SDS011;71057;51.436;6.768;2023-11-22T04:04:04;16.90;;;9.18;;
81648;SDS011;71057;51.436;6.768;2023-11-22T04:06:29;17.58;;;9.02;;
81648;SDS011;71057;51.436;6.768;2023-11-22T04:08:54;18.30;;;10.47;;
81648;SDS011;71057;51.436;6.768;2023-11-22T04:11:20;12.27;;;7.90;;
81648;SDS011;71057;51.436;6.768;2023-11-22T04:13:46;15.55;;;8.63;;
81648;SDS011;71057;51.436;6.768;2023-11-22T04:16:11;14.53;;;7.97;;
81648;SDS011;71057;51.436;6.768;2023-11-22T04:18:38;15.00;;;9.07;;
81648;SDS011;71057;51.436;6.768;2023-11-22T04:21:05;15.95;;;9.50;;
81648;SDS011;71057;51.436;6.768;2023-11-22T04:23:31;14.07;;;9.15;;
81648;SDS011;71057;51.436;6.768;2023-11-22T04:25:58;16.42;;;8.55;;
81648;SDS011;71057;51.436;6.768;2023-11-22T04:28:24;15.50;;;9.65;;
81648;SDS011;71057;51.436;6.768;2023-11-22T04:30:50;17.73;;;9.30;;
81648;SDS011;71057;51.436;6.768;2023-11-22T04:33:17;17.40;;;9.75;;
81648;SDS011;71057;51.436;6.768;2023-11-22T04:35:42;16.30;;;9.23;;
81648;SDS011;71057;51.436;6.768;2023-11-22T04:38:07;19.10;;;9.93;;
81648;SDS011;71057;51.436;6.768;2023-11-22T04:40:33;18.20;;;9.48;;
81648;SDS011;71057;51.436;6.768;2023-11-22T04:42:58;16.77;;;9.50;;
81648;SDS011;71057;51.436;6.768;2023-11-22T04:45:24;17.95;;;10.15;;
81648;SDS011;71057;51.436;6.768;2023-11-22T04:47:49;15.90;;;8.90;;
81648;SDS011;71057;51.436;6.768;2023-11-22T04:50:15;18.60;;;9.90;;
81648;SDS011;71057;51.436;6.768;2023-11-22T04:52:40;13.77;;;8.77;;
81648;SDS011;71057;51.436;6.768;2023-11-22T04:55:05;16.00;;;8.77;;
81648;SDS011;71057;51.436;6.768;2023-11-22T04:57:31;16.38;;;9.05;;
81648;SDS011;71057;51.436;6.768;2023-11-22T04:59:56;17.50;;;9.13;;
81648;SDS011;71057;51.436;6.768;2023-11-22T05:02:22;18.33;;;9.32;;
81648;SDS011;71057;51.436;6.768;2023-11-22T05:04:47;15.57;;;7.93;;
81648;SDS011;71057;51.436;6.768;2023-11-22T05:07:13;14.50;;;9.13;;
81648;SDS011;71057;51.436;6.768;2023-11-22T05:09:39;14.30;;;8.32;;
81648;SDS011;71057;51.436;6.768;2023-11-22T05:12:04;15.10;;;8.13;;
81648;SDS011;71057;51.436;6.768;2023-11-22T05:14:30;15.77;;;8.07;;
81648;SDS011;71057;51.436;6.768;2023-11-22T05:16:55;14.30;;;8.30;;
81648;SDS011;71057;51.436;6.768;2023-11-22T05:19:21;14.65;;;8.73;;
81648;SDS011;71057;51.436;6.768;2023-11-22T05:21:47;14.57;;;8.38;;
81648;SDS011;71057;51.436;6.768;2023-11-22T05:24:12;13.73;;;8.37;;
81648;SDS011;71057;51.436;6.768;2023-11-22T05:26:37;14.30;;;7.77;;
81648;SDS011;71057;51.436;6.768;2023-11-22T05:29:03;14.43;;;7.60;;
81648;SDS011;71057;51.436;6.768;2023-11-22T05:31:30;15.77;;;8.25;;
81648;SDS011;71057;51.436;6.768;2023-11-22T05:33:55;13.63;;;7.65;;
81648;SDS011;71057;51.436;6.768;2023-11-22T05:36:20;16.30;;;7.88;;
81648;SDS011;71057;51.436;6.768;2023-11-22T05:38:46;14.73;;;7.85;;
81648;SDS011;71057;51.436;6.768;2023-11-22T05:41:12;16.65;;;7.03;;
81648;SDS011;71057;51.436;6.768;2023-11-22T05:43:37;13.60;;;6.80;;
81648;SDS011;71057;51.436;6.768;2023-11-22T05:46:05;13.70;;;7.53;;
81648;SDS011;71057;51.436;6.768;2023-11-22T05:48:32;13.93;;;7.95;;
81648;SDS011;71057;51.436;6.768;2023-11-22T05:50:57;14.40;;;8.20;;
81648;SDS011;71057;51.436;6.768;2023-11-22T05:53:22;12.93;;;7.53;;
81648;SDS011;71057;51.436;6.768;2023-11-22T05:55:48;12.33;;;8.00;;
81648;SDS011;71057;51.436;6.768;2023-11-22T05:58:14;12.63;;;6.90;;
81648;SDS011;71057;51.436;6.768;2023-11-22T06:00:42;15.38;;;6.82;;
81648;SDS011;71057;51.436;6.768;2023-11-22T06:03:11;14.48;;;7.38;;
81648;SDS011;71057;51.436;6.768;2023-11-22T06:05:37;13.57;;;7.05;;
81648;SDS011;71057;51.436;6.768;2023-11-22T06:08:03;13.20;;;7.20;;
81648;SDS011;71057;51.436;6.768;2023-11-22T06:10:29;14.13;;;7.43;;
81648;SDS011;71057;51.436;6.768;2023-11-22T06:12:54;11.57;;;7.35;;
81648;SDS011;71057;51.436;6.768;2023-11-22T06:15:19;12.93;;;7.70;;
81648;SDS011;71057;51.436;6.768;2023-11-22T06:17:46;12.05;;;7.45;;
81648;SDS011;71057;51.436;6.768;2023-11-22T06:20:13;14.38;;;7.35;;
81648;SDS011;71057;51.436;6.768;2023-11-22T06:22:38;12.80;;;8.02;;
81648;SDS011;71057;51.436;6.768;2023-11-22T06:25:06;14.40;;;8.43;;
81648;SDS011;71057;51.436;6.768;2023-11-22T06:27:35;13.60;;;7.75;;
81648;SDS011;71057;51.436;6.768;2023-11-22T06:30:01;14.40;;;7.47;;
81648;SDS011;71057;51.436;6.768;2023-11-22T06:32:26;13.27;;;7.82;;
81648;SDS011;71057;51.436;6.768;2023-11-22T06:34:51;15.13;;;8.50;;
81648;SDS011;71057;51.436;6.768;2023-11-22T06:37:17;14.70;;;8.40;;
81648;SDS011;71057;51.436;6.768;2023-11-22T06:39:42;15.83;;;8.63;;
81648;SDS011;71057;51.436;6.768;2023-11-22T06:42:07;12.10;;;7.53;;
81648;SDS011;71057;51.436;6.768;2023-11-22T06:44:33;13.88;;;8.50;;
81648;SDS011;71057;51.436;6.768;2023-11-22T06:46:59;12.43;;;7.28;;
81648;SDS011;71057;51.436;6.768;2023-11-22T06:49:24;12.57;;;7.43;;
81648;SDS011;71057;51.436;6.768;2023-11-22T06:51:49;11.87;;;7.43;;
81648;SDS011;71057;51.436;6.768;2023-11-22T06:54:15;13.13;;;7.63;;
81648;SDS011;71057;51.436;6.768;2023-11-22T06:56:40;14.20;;;7.67;;
81648;SDS011;71057;51.436;6.768;2023-11-22T06:59:05;13.83;;;7.80;;
81648;SDS011;71057;51.436;6.768;2023-11-22T07:01:31;13.75;;;8.07;;
81648;SDS011;71057;51.436;6.768;2023-11-22T07:03:56;12.27;;;7.78;;
81648;SDS011;71057;51.436;6.768;2023-11-22T07:06:21;13.37;;;7.83;;
81648;SDS011;71057;51.436;6.768;2023-11-22T07:08:49;12.27;;;7.95;;
81648;SDS011;71057;51.436;6.768;2023-11-22T07:11:20;16.85;;;8.70;;
81648;SDS011;71057;51.436;6.768;2023-11-22T07:13:48;14.43;;;7.43;;
81648;SDS011;71057;51.436;6.768;2023-11-22T07:16:13;17.52;;;7.40;;
81648;SDS011;71057;51.436;6.768;2023-11-22T07:18:40;12.70;;;7.40;;
81648;SDS011;71057;51.436;6.768;2023-11-22T07:21:05;14.43;;;7.50;;
81648;SDS011;71057;51.436;6.768;2023-11-22T07:23:30;13.02;;;7.97;;
81648;SDS011;71057;51.436;6.768;2023-11-22T07:25:56;11.83;;;6.43;;
81648;SDS011;71057;51.436;6.768;2023-11-22T07:28:21;17.40;;;9.10;;
81648;SDS011;71057;51.436;6.768;2023-11-22T07:30:46;14.35;;;8.57;;
81648;SDS011;71057;51.436;6.768;2023-11-22T07:33:13;13.85;;;7.80;;
81648;SDS011;71057;51.436;6.768;2023-11-22T07:35:40;13.98;;;7.53;;
81648;SDS011;71057;51.436;6.768;2023-11-22T07:38:05;11.82;;;7.47;;
81648;SDS011;71057;51.436;6.768;2023-11-22T07:40:33;12.73;;;6.80;;
81648;SDS011;71057;51.436;6.768;2023-11-22T07:42:59;15.30;;;7.82;;
81648;SDS011;71057;51.436;6.768;2023-11-22T07:45:27;12.52;;;7.05;;
81648;SDS011;71057;51.436;6.768;2023-11-22T07:47:52;15.38;;;7.28;;
81648;SDS011;71057;51.436;6.768;2023-11-22T07:50:18;10.27;;;6.68;;
81648;SDS011;71057;51.436;6.768;2023-11-22T07:52:45;15.10;;;8.00;;
81648;SDS011;71057;51.436;6.768;2023-11-22T07:55:10;14.77;;;8.00;;
81648;SDS011;71057;51.436;6.768;2023-11-22T07:57:36;14.18;;;7.50;;
81648;SDS011;71057;51.436;6.768;2023-11-22T08:00:03;12.45;;;7.07;;
81648;SDS011;71057;51.436;6.768;2023-11-22T08:02:32;12.30;;;6.50;;
81648;SDS011;71057;51.436;6.768;2023-11-22T08:04:58;11.90;;;7.47;;
81648;SDS011;71057;51.436;6.768;2023-11-22T08:07:27;13.18;;;7.15;;
81648;SDS011;71057;51.436;6.768;2023-11-22T08:09:53;13.43;;;6.90;;
81648;SDS011;71057;51.436;6.768;2023-11-22T08:12:18;11.35;;;7.25;;
81648;SDS011;71057;51.436;6.768;2023-11-22T08:14:44;11.63;;;7.35;;
81648;SDS011;71057;51.436;6.768;2023-11-22T08:17:09;9.97;;;6.60;;
81648;SDS011;71057;51.436;6.768;2023-11-22T08:19:36;10.30;;;6.43;;
81648;SDS011;71057;51.436;6.768;2023-11-22T08:22:05;11.55;;;6.47;;
81648;SDS011;71057;51.436;6.768;2023-11-22T08:24:30;12.30;;;7.65;;
81648;SDS011;71057;51.436;6.768;2023-11-22T08:26:57;12.20;;;6.32;;
81648;SDS011;71057;51.436;6.768;2023-11-22T08:29:23;10.05;;;6.10;;
81648;SDS011;71057;51.436;6.768;2023-11-22T08:31:49;11.13;;;6.50;;
81648;SDS011;71057;51.436;6.768;2023-11-22T08:34:15;14.93;;;7.15;;
81648;SDS011;71057;51.436;6.768;2023-11-22T08:36:41;11.75;;;6.10;;
81648;SDS011;71057;51.436;6.768;2023-11-22T08:39:07;10.15;;;5.85;;
81648;SDS011;71057;51.436;6.768;2023-11-22T08:41:33;10.98;;;5.90;;
81648;SDS011;71057;51.436;6.768;2023-11-22T08:43:58;8.95;;;6.00;;
81648;SDS011;71057;51.436;6.768;2023-11-22T08:46:24;11.05;;;6.07;;
81648;SDS011;71057;51.436;6.768;2023-11-22T08:48:51;9.88;;;6.10;;
81648;SDS011;71057;51.436;6.768;2023-11-22T08:51:16;10.25;;;6.25;;
81648;SDS011;71057;51.436;6.768;2023-11-22T08:53:42;11.68;;;6.47;;
81648;SDS011;71057;51.436;6.768;2023-11-22T08:56:09;11.00;;;5.82;;
81648;SDS011;71057;51.436;6.768;2023-11-22T08:58:34;10.50;;;6.60;;
81648;SDS011;71057;51.436;6.768;2023-11-22T09:01:00;10.43;;;6.70;;
81648;SDS011;71057;51.436;6.768;2023-11-22T09:03:25;9.80;;;5.80;;
81648;SDS011;71057;51.436;6.768;2023-11-22T09:05:51;9.13;;;5.75;;
81648;SDS011;71057;51.436;6.768;2023-11-22T09:08:18;10.63;;;6.10;;
81648;SDS011;71057;51.436;6.768;2023-11-22T09:10:45;9.95;;;5.85;;
81648;SDS011;71057;51.436;6.768;2023-11-22T09:13:11;11.10;;;6.90;;
81648;SDS011;71057;51.436;6.768;2023-11-22T09:15:37;12.68;;;6.82;;
81648;SDS011;71057;51.436;6.768;2023-11-22T09:18:03;10.77;;;6.57;;
81648;SDS011;71057;51.436;6.768;2023-11-22T09:20:29;12.73;;;6.68;;
81648;SDS011;71057;51.436;6.768;2023-11-22T09:22:55;10.80;;;6.07;;
81648;SDS011;71057;51.436;6.768;2023-11-22T09:25:21;9.23;;;5.55;;
81648;SDS011;71057;51.436;6.768;2023-11-22T09:27:48;8.25;;;5.47;;
81648;SDS011;71057;51.436;6.768;2023-11-22T09:30:18;10.35;;;5.97;;
81648;SDS011;71057;51.436;6.768;2023-11-22T09:32:57;9.63;;;5.30;;
81648;SDS011;71057;51.436;6.768;2023-11-22T09:35:23;8.57;;;5.72;;
81648;SDS011;71057;51.436;6.768;2023-11-22T09:37:48;9.33;;;5.67;;
81648;SDS011;71057;51.436;6.768;2023-11-22T09:40:14;8.60;;;6.10;;
81648;SDS011;71057;51.436;6.768;2023-11-22T09:42:42;8.18;;;5.40;;
81648;SDS011;71057;51.436;6.768;2023-11-22T09:45:11;9.68;;;4.57;;
81648;SDS011;71057;51.436;6.768;2023-11-22T09:47:37;7.70;;;5.13;;
81648;SDS011;71057;51.436;6.768;2023-11-22T09:50:03;8.27;;;5.32;;
81648;SDS011;71057;51.436;6.768;2023-11-22T09:52:32;8.38;;;4.82;;
81648;SDS011;71057;51.436;6.768;2023-11-22T09:55:01;6.90;;;3.90;;
81648;SDS011;71057;51.436;6.768;2023-11-22T09:57:27;8.55;;;4.72;;
81648;SDS011;71057;51.436;6.768;2023-11-22T09:59:55;6.32;;;4.00;;
81648;SDS011;71057;51.436;6.768;2023-11-22T10:02:22;7.75;;;4.78;;
81648;SDS011;71057;51.436;6.768;2023-11-22T10:04:52;7.13;;;3.38;;
81648;SDS011;71057;51.436;6.768;2023-11-22T10:07:18;8.15;;;4.15;;
81648;SDS011;71057;51.436;6.768;2023-11-22T10:09:43;7.32;;;4.20;;
81648;SDS011;71057;51.436;6.768;2023-11-22T10:12:09;9.35;;;5.57;;
81648;SDS011;71057;51.436;6.768;2023-11-22T10:14:37;7.18;;;4.75;;
81648;SDS011;71057;51.436;6.768;2023-11-22T10:17:03;7.88;;;4.72;;
81648;SDS011;71057;51.436;6.768;2023-11-22T10:19:30;6.95;;;4.30;;
81648;SDS011;71057;51.436;6.768;2023-11-22T10:22:06;7.45;;;5.00;;
81648;SDS011;71057;51.436;6.768;2023-11-22T10:24:33;7.55;;;5.07;;
81648;SDS011;71057;51.436;6.768;2023-11-22T10:26:59;8.13;;;4.70;;
81648;SDS011;71057;51.436;6.768;2023-11-22T10:29:26;7.60;;;5.53;;
81648;SDS011;71057;51.436;6.768;2023-11-22T10:31:51;8.18;;;5.18;;
81648;SDS011;71057;51.436;6.768;2023-11-22T10:34:21;7.70;;;5.15;;
81648;SDS011;71057;51.436;6.768;2023-11-22T10:36:47;7.95;;;5.70;;
81648;SDS011;71057;51.436;6.768;2023-11-22T10:39:12;9.53;;;6.00;;
81648;SDS011;71057;51.436;6.768;2023-11-22T10:41:41;8.00;;;5.32;;
81648;SDS011;71057;51.436;6.768;2023-11-22T10:44:08;8.63;;;5.15;;
81648;SDS011;71057;51.436;6.768;2023-11-22T10:46:34;8.05;;;4.38;;
81648;SDS011;71057;51.436;6.768;2023-11-22T10:49:00;8.25;;;5.40;;
81648;SDS011;71057;51.436;6.768;2023-11-22T10:51:35;7.10;;;4.93;;
81648;SDS011;71057;51.436;6.768;2023-11-22T10:54:06;6.68;;;4.43;;
81648;SDS011;71057;51.436;6.768;2023-11-22T10:56:39;6.53;;;4.53;;
81648;SDS011;71057;51.436;6.768;2023-11-22T10:59:09;6.63;;;4.22;;
81648;SDS011;71057;51.436;6.768;2023-11-22T11:01:38;7.32;;;4.45;;
81648;SDS011;71057;51.436;6.768;2023-11-22T11:04:11;7.82;;;4.40;;
81648;SDS011;71057;51.436;6.768;2023-11-22T11:06:44;6.72;;;4.85;;
81648;SDS011;71057;51.436;6.768;2023-11-22T11:09:11;8.48;;;5.43;;
81648;SDS011;71057;51.436;6.768;2023-11-22T11:11:40;7.80;;;5.13;;
81648;SDS011;71057;51.436;6.768;2023-11-22T11:14:06;7.72;;;5.10;;
81648;SDS011;71057;51.436;6.768;2023-11-22T11:16:36;5.63;;;4.10;;
81648;SDS011;71057;51.436;6.768;2023-11-22T11:19:06;6.47;;;4.40;;
81648;SDS011;71057;51.436;6.768;2023-11-22T11:21:33;6.30;;;4.03;;
81648;SDS011;71057;51.436;6.768;2023-11-22T11:23:59;7.28;;;4.25;;
81648;SDS011;71057;51.436;6.768;2023-11-22T11:26:28;7.55;;;4.10;;
81648;SDS011;71057;51.436;6.768;2023-11-22T11:28:57;7.40;;;4.47;;
81648;SDS011;71057;51.436;6.768;2023-11-22T11:31:22;6.47;;;3.77;;
81648;SDS011;71057;51.436;6.768;2023-11-22T11:36:27;7.73;;;3.90;;
81648;SDS011;71057;51.436;6.768;2023-11-22T11:38:58;6.88;;;3.72;;
81648;SDS011;71057;51.436;6.768;2023-11-22T11:41:26;6.88;;;5.00;;
81648;SDS011;71057;51.436;6.768;2023-11-22T11:43:53;6.68;;;4.20;;
81648;SDS011;71057;51.436;6.768;2023-11-22T11:46:20;6.00;;;4.20;;
81648;SDS011;71057;51.436;6.768;2023-11-22T11:48:48;6.65;;;4.05;;
81648;SDS011;71057;51.436;6.768;2023-11-22T11:51:16;5.80;;;4.05;;
81648;SDS011;71057;51.436;6.768;2023-11-22T11:53:42;6.65;;;4.32;;
81648;SDS011;71057;51.436;6.768;2023-11-22T11:56:09;5.50;;;3.70;;
81648;SDS011;71057;51.436;6.768;2023-11-22T11:58:34;5.18;;;3.60;;
81648;SDS011;71057;51.436;6.768;2023-11-22T12:01:00;6.97;;;3.35;;
81648;SDS011;71057;51.436;6.768;2023-11-22T12:03:25;6.72;;;4.75;;
81648;SDS011;71057;51.436;6.768;2023-11-22T12:05:51;5.28;;;3.58;;
81648;SDS011;71057;51.436;6.768;2023-11-22T12:08:16;5.43;;;3.17;;
81648;SDS011;71057;51.436;6.768;2023-11-22T12:10:43;4.18;;;2.30;;
81648;SDS011;71057;51.436;6.768;2023-11-22T12:13:13;5.18;;;2.67;;
81648;SDS011;71057;51.436;6.768;2023-11-22T12:15:41;4.40;;;2.65;;
81648;SDS011;71057;51.436;6.768;2023-11-22T12:18:07;4.75;;;2.60;;
81648;SDS011;71057;51.436;6.768;2023-11-22T12:20:32;6.80;;;3.83;;
81648;SDS011;71057;51.436;6.768;2023-11-22T12:22:58;6.47;;;3.33;;
81648;SDS011;71057;51.436;6.768;2023-11-22T12:25:29;3.88;;;2.20;;
81648;SDS011;71057;51.436;6.768;2023-11-22T12:27:55;5.00;;;1.98;;
81648;SDS011;71057;51.436;6.768;2023-11-22T12:30:31;3.75;;;2.13;;
81648;SDS011;71057;51.436;6.768;2023-11-22T12:33:01;4.43;;;2.80;;
81648;SDS011;71057;51.436;6.768;2023-11-22T12:35:29;5.20;;;3.03;;
81648;SDS011;71057;51.436;6.768;2023-11-22T12:37:54;4.85;;;3.08;;
81648;SDS011;71057;51.436;6.768;2023-11-22T12:40:20;4.05;;;2.40;;
81648;SDS011;71057;51.436;6.768;2023-11-22T12:42:47;4.30;;;2.70;;
81648;SDS011;71057;51.436;6.768;2023-11-22T12:47:46;4.15;;;2.78;;
81648;SDS011;71057;51.436;6.768;2023-11-22T12:53:07;3.78;;;2.20;;
81648;SDS011;71057;51.436;6.768;2023-11-22T12:55:34;2.75;;;1.58;;
81648;SDS011;71057;51.436;6.768;2023-11-22T12:57:59;2.78;;;1.75;;
81648;SDS011;71057;51.436;6.768;2023-11-22T13:00:27;3.42;;;1.52;;
81648;SDS011;71057;51.436;6.768;2023-11-22T13:02:54;3.35;;;1.58;;
81648;SDS011;71057;51.436;6.768;2023-11-22T13:05:22;2.47;;;1.63;;
81648;SDS011;71057;51.436;6.768;2023-11-22T13:07:49;2.75;;;2.00;;
81648;SDS011;71057;51.436;6.768;2023-11-22T13:10:14;2.53;;;1.00;;
81648;SDS011;71057;51.436;6.768;2023-11-22T13:12:41;3.47;;;1.30;;
81648;SDS011;71057;51.436;6.768;2023-11-22T13:15:09;3.17;;;1.25;;
81648;SDS011;71057;51.436;6.768;2023-11-22T13:17:36;2.00;;;1.20;;
81648;SDS011;71057;51.436;6.768;2023-11-22T13:20:02;2.40;;;1.55;;
81648;SDS011;71057;51.436;6.768;2023-11-22T13:22:30;4.13;;;2.25;;
81648;SDS011;71057;51.436;6.768;2023-11-22T13:24:55;3.83;;;2.00;;
81648;SDS011;71057;51.436;6.768;2023-11-22T13:27:21;4.13;;;2.00;;
81648;SDS011;71057;51.436;6.768;2023-11-22T13:29:46;5.45;;;2.20;;
81648;SDS011;71057;51.436;6.768;2023-11-22T13:32:11;2.83;;;1.80;;
81648;SDS011;71057;51.436;6.768;2023-11-22T13:34:37;3.88;;;2.30;;
81648;SDS011;71057;51.436;6.768;2023-11-22T13:37:02;5.90;;;2.03;;
81648;SDS011;71057;51.436;6.768;2023-11-22T13:39:29;8.73;;;2.60;;
81648;SDS011;71057;51.436;6.768;2023-11-22T13:41:58;5.35;;;2.45;;
81648;SDS011;71057;51.436;6.768;2023-11-22T13:44:23;7.10;;;3.20;;
81648;SDS011;71057;51.436;6.768;2023-11-22T13:46:49;4.47;;;2.73;;
81648;SDS011;71057;51.436;6.768;2023-11-22T13:49:14;4.80;;;2.35;;
81648;SDS011;71057;51.436;6.768;2023-11-22T13:51:40;4.40;;;2.78;;
81648;SDS011;71057;51.436;6.768;2023-11-22T13:54:05;3.70;;;2.25;;
81648;SDS011;71057;51.436;6.768;2023-11-22T13:56:30;4.50;;;2.60;;
81648;SDS011;71057;51.436;6.768;2023-11-22T13:58:56;4.87;;;2.73;;
81648;SDS011;71057;51.436;6.768;2023-11-22T14:01:22;5.90;;;2.83;;
81648;SDS011;71057;51.436;6.768;2023-11-22T14:03:47;2.67;;;1.52;;
81648;SDS011;71057;51.436;6.768;2023-11-22T14:06:13;3.40;;;2.08;;
81648;SDS011;71057;51.436;6.768;2023-11-22T14:08:41;4.80;;;2.13;;
81648;SDS011;71057;51.436;6.768;2023-11-22T14:11:07;3.92;;;2.40;;
81648;SDS011;71057;51.436;6.768;2023-11-22T14:13:32;5.55;;;3.00;;
81648;SDS011;71057;51.436;6.768;2023-11-22T14:15:57;6.87;;;3.50;;
81648;SDS011;71057;51.436;6.768;2023-11-22T14:18:23;4.55;;;3.00;;
81648;SDS011;71057;51.436;6.768;2023-11-22T14:20:50;5.63;;;2.80;;
81648;SDS011;71057;51.436;6.768;2023-11-22T14:23:15;6.10;;;3.17;;
81648;SDS011;71057;51.436;6.768;2023-11-22T14:25:42;7.35;;;3.60;;
81648;SDS011;71057;51.436;6.768;2023-11-22T14:28:07;7.15;;;4.00;;
81648;SDS011;71057;51.436;6.768;2023-11-22T14:30:33;6.63;;;3.30;;
81648;SDS011;71057;51.436;6.768;2023-11-22T14:33:01;6.95;;;3.65;;
81648;SDS011;71057;51.436;6.768;2023-11-22T14:35:31;4.72;;;3.03;;
81648;SDS011;71057;51.436;6.768;2023-11-22T14:37:56;5.25;;;3.30;;
81648;SDS011;71057;51.436;6.768;2023-11-22T14:40:23;4.93;;;2.80;;
81648;SDS011;71057;51.436;6.768;2023-11-22T14:42:48;5.38;;;2.75;;